Rickenbacker International Airport

Airport
ICAO code: 
KLCK
Summary
ICAO Region: 
NAM
Territory: 
Location: 
Columbus, Ohio,
Coordinates: 
Aerial View: 
39° 48' 59.875" N, 82° 55' 57.486" W
Airport LOS: 
Parallel Runway Operation
Airport WX: 
Cumulonimbus
Metar
Observation
KLCK 021455Z AUTO 23014G19KT 10SM CLR 12/08 A2981 RMK AO2 T01200082
Station
Rickenbacker Air National Guard Base
Date/Time
2021-12-02 14:55:00
Wind direction
230°
Wind speed
14 kts
Lowest cloud amount
n/a
Temperature
12°C
Dew point
8.2°C
Humidity
77%
Weather condition
n/a

Description

Rickenbacker International Airport is a joint civil-military (ANG) public use airport located 16 km south of the central business district of Columbus, in Franklin County, Ohio.

Climatology

Transition between humid “subtropical” climate (Köppen climate classification Cfa) and humid "continental" climate (Köppen climate classification Dfa) - characterized by hot, muggy summers and cold, dry winters. Precipitation reaches its lowest in January and February and peaks in summer and latter half of spring. Winter snowfall is associated with large storms that the westerlies steer from west to east. Most summer rainfall occurs during thunderstorms.

Runways

Designator Length Width Surface Rops
6/24 989 18 ASP Yes/Yes
05L/23R 3638 46 ASP Yes/Yes
05R/23L 3689 61 PEM Yes/Yes
Airport map: 
Aerial View: 

SKYbrary Partners:

Safety knowledge contributed by: